createdAt,value
2022-12-17T00:00:06.887Z,0.00
2022-12-17T00:01:06.887Z,0.00
2022-12-17T00:02:06.822Z,0.00
2022-12-17T00:03:06.945Z,0.00
2022-12-17T00:04:06.907Z,0.00
2022-12-17T00:05:06.790Z,0.00
2022-12-17T00:06:06.774Z,0.00
2022-12-17T00:07:06.759Z,0.00
2022-12-17T00:08:06.746Z,0.00
2022-12-17T00:09:06.738Z,0.00
2022-12-17T00:10:06.767Z,0.00
2022-12-17T00:11:06.741Z,0.00
2022-12-17T00:12:06.692Z,0.00
2022-12-17T00:13:06.682Z,0.00
2022-12-17T00:14:06.671Z,0.00
2022-12-17T00:15:06.694Z,0.00
2022-12-17T00:16:06.698Z,0.00
2022-12-17T00:17:06.660Z,0.00
2022-12-17T00:18:06.652Z,0.00
2022-12-17T00:19:06.646Z,0.00
2022-12-17T00:20:06.623Z,0.00
2022-12-17T00:21:06.602Z,0.00
2022-12-17T00:22:06.595Z,0.00
2022-12-17T00:23:06.599Z,0.00
2022-12-17T00:24:06.583Z,0.00
2022-12-17T00:25:06.620Z,0.00
2022-12-17T00:26:06.541Z,0.00
2022-12-17T00:27:06.534Z,0.00
2022-12-17T00:28:06.524Z,0.00
2022-12-17T00:29:06.525Z,0.00
2022-12-17T00:30:06.521Z,0.00
2022-12-17T00:31:06.541Z,0.00
2022-12-17T00:32:06.487Z,0.00
2022-12-17T00:33:06.470Z,0.00
2022-12-17T00:34:06.456Z,0.00
2022-12-17T00:35:06.472Z,0.00
2022-12-17T00:36:06.451Z,0.00
2022-12-17T00:37:06.441Z,0.00
2022-12-17T00:38:06.429Z,0.00
2022-12-17T00:39:06.409Z,0.00
2022-12-17T00:40:06.422Z,0.00
2022-12-17T00:41:06.390Z,0.00
2022-12-17T00:42:06.372Z,0.00
2022-12-17T00:43:06.356Z,0.00
2022-12-17T00:44:06.356Z,0.00
2022-12-17T00:45:06.342Z,0.00
2022-12-17T00:46:06.347Z,0.00
2022-12-17T00:47:06.378Z,0.00
2022-12-17T00:48:06.303Z,0.00
2022-12-17T00:49:06.307Z,0.00
2022-12-17T00:50:06.282Z,0.00
2022-12-17T00:51:06.298Z,0.00
2022-12-17T00:52:06.272Z,0.00
2022-12-17T00:53:06.260Z,0.00
2022-12-17T00:54:06.306Z,0.00
2022-12-17T00:55:06.230Z,0.00
2022-12-17T00:56:06.270Z,0.00
2022-12-17T00:57:06.218Z,0.00
2022-12-17T00:58:06.206Z,0.00
2022-12-17T00:59:06.197Z,0.00
2022-12-17T01:00:06.197Z,0.00
2022-12-17T01:01:06.246Z,0.00
2022-12-17T01:02:06.304Z,0.00
2022-12-17T01:03:06.190Z,0.00
2022-12-17T01:04:06.146Z,0.00
2022-12-17T01:05:06.166Z,0.00
2022-12-17T01:06:06.175Z,0.00
2022-12-17T01:07:06.120Z,0.00
2022-12-17T01:08:06.109Z,0.00
2022-12-17T01:09:06.106Z,0.00
2022-12-17T01:10:06.105Z,0.00
2022-12-17T01:11:06.146Z,0.00
2022-12-17T01:12:06.071Z,0.00
2022-12-17T01:13:06.051Z,0.00
2022-12-17T01:14:06.045Z,0.00
2022-12-17T01:15:06.013Z,0.00
2022-12-17T01:16:06.074Z,0.00
2022-12-17T01:17:05.993Z,0.00
2022-12-17T01:18:05.997Z,0.00
2022-12-17T01:19:06.013Z,0.00
2022-12-17T01:20:05.964Z,0.00
2022-12-17T01:21:05.966Z,0.00
2022-12-17T01:22:05.933Z,0.00
2022-12-17T01:23:05.937Z,0.00
2022-12-17T01:24:05.915Z,0.00
2022-12-17T01:25:05.971Z,0.00
2022-12-17T01:26:05.919Z,0.00
2022-12-17T01:27:05.878Z,0.00
2022-12-17T01:28:05.876Z,0.00
2022-12-17T01:29:05.865Z,0.00
2022-12-17T01:30:05.856Z,0.00
2022-12-17T01:31:05.869Z,0.00
2022-12-17T01:32:05.950Z,0.00
2022-12-17T01:33:05.823Z,0.00
2022-12-17T01:34:05.811Z,0.00
2022-12-17T01:35:05.828Z,0.00
2022-12-17T01:36:05.822Z,0.00
2022-12-17T01:37:05.807Z,0.00
2022-12-17T01:38:05.760Z,0.00
2022-12-17T01:39:05.763Z,0.00
2022-12-17T01:40:05.746Z,0.00
2022-12-17T01:41:05.753Z,0.00
2022-12-17T01:42:05.732Z,0.00
2022-12-17T01:43:05.727Z,0.00
2022-12-17T01:44:05.716Z,0.00
2022-12-17T01:45:05.680Z,0.00
2022-12-17T01:46:05.814Z,0.00
2022-12-17T01:47:05.680Z,0.00
2022-12-17T01:48:05.666Z,0.00
2022-12-17T01:49:05.645Z,0.00
2022-12-17T01:50:05.641Z,0.00
2022-12-17T01:51:05.643Z,0.00
2022-12-17T01:52:05.615Z,0.00
2022-12-17T01:53:05.604Z,0.00
2022-12-17T01:54:05.602Z,0.00
2022-12-17T01:55:05.591Z,0.00
2022-12-17T01:56:05.603Z,0.00
2022-12-17T01:57:05.574Z,0.00
2022-12-17T01:58:05.574Z,0.00
2022-12-17T01:59:05.552Z,0.00
2022-12-17T02:00:05.530Z,0.00
2022-12-17T02:01:05.572Z,0.00
2022-12-17T02:02:05.813Z,0.00
2022-12-17T02:03:05.545Z,0.00
2022-12-17T02:04:05.490Z,0.00
2022-12-17T02:05:05.484Z,0.00
2022-12-17T02:06:05.488Z,0.00
2022-12-17T02:07:05.490Z,0.00
2022-12-17T02:08:05.469Z,0.00
2022-12-17T02:09:05.437Z,0.00
2022-12-17T02:10:05.428Z,0.00
2022-12-17T02:11:05.422Z,0.00
2022-12-17T02:12:05.405Z,0.00
2022-12-17T02:13:05.409Z,0.00
2022-12-17T02:14:05.386Z,0.00
2022-12-17T02:15:05.402Z,0.00
2022-12-17T02:16:05.428Z,0.00
2022-12-17T02:17:05.390Z,0.00
2022-12-17T02:18:05.346Z,0.00
2022-12-17T02:19:05.353Z,0.00
2022-12-17T02:20:05.332Z,0.00
2022-12-17T02:21:05.344Z,0.00
2022-12-17T02:22:05.301Z,0.00
2022-12-17T02:23:05.308Z,0.00
2022-12-17T02:24:05.297Z,0.00
2022-12-17T02:25:05.259Z,0.00
2022-12-17T02:26:05.266Z,0.00
2022-12-17T02:27:05.264Z,0.00
2022-12-17T02:28:05.265Z,0.00
2022-12-17T02:29:05.242Z,0.00
2022-12-17T02:30:05.242Z,0.00
2022-12-17T02:31:05.219Z,0.00
2022-12-17T02:32:05.209Z,0.00
2022-12-17T02:33:05.173Z,0.00
2022-12-17T02:34:05.201Z,0.00
2022-12-17T02:35:05.198Z,0.00
2022-12-17T02:36:05.219Z,0.00
2022-12-17T02:37:05.158Z,0.00
2022-12-17T02:38:05.138Z,0.00
2022-12-17T02:39:05.121Z,0.00
2022-12-17T02:40:05.113Z,0.00
2022-12-17T02:41:05.122Z,0.00
2022-12-17T02:42:05.083Z,0.00
2022-12-17T02:43:05.087Z,0.00
2022-12-17T02:44:05.085Z,0.00
2022-12-17T02:45:05.051Z,0.00
2022-12-17T02:46:05.124Z,0.00
2022-12-17T02:47:05.063Z,0.00
2022-12-17T02:48:05.025Z,0.00
2022-12-17T02:49:05.033Z,0.00
2022-12-17T02:50:05.009Z,0.00
2022-12-17T02:51:05.036Z,0.00
2022-12-17T02:52:04.983Z,0.00
2022-12-17T02:53:04.977Z,0.00
2022-12-17T02:54:04.979Z,0.00
2022-12-17T02:55:04.968Z,0.00
2022-12-17T02:56:04.983Z,0.00
2022-12-17T02:57:04.926Z,0.00
2022-12-17T02:58:04.916Z,0.00
2022-12-17T02:59:04.906Z,0.00
2022-12-17T03:00:04.896Z,0.00
2022-12-17T03:01:04.938Z,0.00
2022-12-17T03:02:05.096Z,0.00
2022-12-17T03:03:05.021Z,0.00
2022-12-17T03:04:04.845Z,0.00
2022-12-17T03:05:27.664Z,0.00
2022-12-17T03:06:04.881Z,0.00
2022-12-17T03:07:04.825Z,0.00
2022-12-17T03:08:04.807Z,0.00
2022-12-17T03:09:04.807Z,0.00
2022-12-17T03:10:04.788Z,0.00
2022-12-17T03:11:04.814Z,0.00
2022-12-17T03:12:04.767Z,0.00
2022-12-17T03:13:04.761Z,0.00
2022-12-17T03:14:04.742Z,0.00
2022-12-17T03:15:04.743Z,0.00
2022-12-17T03:16:04.766Z,0.00
2022-12-17T03:17:04.774Z,0.00
2022-12-17T03:18:04.703Z,0.00
2022-12-17T03:19:04.683Z,0.00
2022-12-17T03:20:04.673Z,0.00
2022-12-17T03:21:04.682Z,0.00
2022-12-17T03:22:04.657Z,0.00
2022-12-17T03:23:04.636Z,0.00
2022-12-17T03:24:04.636Z,0.00
2022-12-17T03:25:04.617Z,0.00
2022-12-17T03:26:04.627Z,0.00
2022-12-17T03:27:04.595Z,0.00
2022-12-17T03:28:04.615Z,0.00
2022-12-17T03:29:04.585Z,0.00
2022-12-17T03:30:04.582Z,0.00
2022-12-17T03:31:04.589Z,0.00
2022-12-17T03:32:04.571Z,0.00
2022-12-17T03:33:04.539Z,0.00
2022-12-17T03:34:04.545Z,0.00
2022-12-17T03:35:04.541Z,0.00
2022-12-17T03:36:04.520Z,0.00
2022-12-17T03:37:04.510Z,0.00
2022-12-17T03:38:04.510Z,0.00
2022-12-17T03:39:04.476Z,0.00
2022-12-17T03:40:04.458Z,0.00
2022-12-17T03:41:04.446Z,0.00
2022-12-17T03:42:04.488Z,0.00
2022-12-17T03:43:04.436Z,0.00
2022-12-17T03:44:04.427Z,0.00
2022-12-17T03:45:04.406Z,0.00
2022-12-17T03:46:04.444Z,0.00
2022-12-17T03:47:04.398Z,0.00
2022-12-17T03:48:04.410Z,0.00
2022-12-17T03:49:04.371Z,0.00
2022-12-17T03:50:04.384Z,0.00
2022-12-17T03:51:04.337Z,0.00
2022-12-17T03:52:04.345Z,0.00
2022-12-17T03:53:04.315Z,0.00
2022-12-17T03:54:04.322Z,0.00
2022-12-17T03:55:04.304Z,0.00
2022-12-17T03:56:04.293Z,0.00
2022-12-17T03:57:04.285Z,0.00
2022-12-17T03:58:04.261Z,0.00
2022-12-17T03:59:04.257Z,0.00
2022-12-17T04:00:04.247Z,0.00
2022-12-17T04:01:04.282Z,0.00
2022-12-17T04:02:04.344Z,0.00
2022-12-17T04:03:04.342Z,0.00
2022-12-17T04:04:04.201Z,0.00
2022-12-17T04:05:04.206Z,0.00
2022-12-17T04:06:04.196Z,0.00
2022-12-17T04:07:04.195Z,0.00
2022-12-17T04:08:04.178Z,0.00
2022-12-17T04:09:04.148Z,0.00
2022-12-17T04:10:04.149Z,0.00
2022-12-17T04:11:04.124Z,0.00
2022-12-17T04:12:12.066Z,0.00
2022-12-17T04:13:04.099Z,0.00
2022-12-17T04:14:04.087Z,0.00
2022-12-17T04:15:04.087Z,0.00
2022-12-17T04:16:04.101Z,0.00
2022-12-17T04:17:04.062Z,0.00
2022-12-17T04:18:04.040Z,0.00
2022-12-17T04:19:04.035Z,0.00
2022-12-17T04:20:04.021Z,0.00
2022-12-17T04:21:04.020Z,0.00
2022-12-17T04:22:04.015Z,0.00
2022-12-17T04:23:03.996Z,0.00
2022-12-17T04:24:03.978Z,0.00
2022-12-17T04:25:03.970Z,0.00
2022-12-17T04:26:03.960Z,0.00
2022-12-17T04:27:03.965Z,0.00
2022-12-17T04:28:03.939Z,0.00
2022-12-17T04:29:03.935Z,0.00
2022-12-17T04:30:03.917Z,0.00
2022-12-17T04:31:03.961Z,0.00
2022-12-17T04:32:03.906Z,0.00
2022-12-17T04:33:03.884Z,0.00
2022-12-17T04:34:03.871Z,0.00
2022-12-17T04:35:03.866Z,0.00
2022-12-17T04:36:03.852Z,0.00
2022-12-17T04:37:03.863Z,0.00
2022-12-17T04:38:03.831Z,0.00
2022-12-17T04:39:03.827Z,0.00
2022-12-17T04:40:03.815Z,0.00
2022-12-17T04:41:03.811Z,0.00
2022-12-17T04:42:03.807Z,0.00
2022-12-17T04:43:03.779Z,0.00
2022-12-17T04:44:03.820Z,0.00
2022-12-17T04:45:03.758Z,0.00
2022-12-17T04:46:03.786Z,0.00
2022-12-17T04:47:03.758Z,0.00
2022-12-17T04:48:03.726Z,0.00
2022-12-17T04:49:03.713Z,0.00
2022-12-17T04:50:03.709Z,0.00
2022-12-17T04:51:03.692Z,0.00
2022-12-17T04:52:03.699Z,0.00
2022-12-17T04:53:03.673Z,0.00
2022-12-17T04:54:03.665Z,0.00
2022-12-17T04:55:03.643Z,0.00
2022-12-17T04:56:03.643Z,0.00
2022-12-17T04:57:03.646Z,0.00
2022-12-17T04:58:03.614Z,0.00
2022-12-17T04:59:03.604Z,0.00
2022-12-17T05:00:03.597Z,0.00
2022-12-17T05:01:03.593Z,0.00
2022-12-17T05:02:03.709Z,0.00
2022-12-17T05:03:03.701Z,0.00
2022-12-17T05:04:03.644Z,0.00
2022-12-17T05:05:03.547Z,0.00
2022-12-17T05:06:03.529Z,0.00
2022-12-17T05:07:03.543Z,0.00
2022-12-17T05:08:03.504Z,0.00
2022-12-17T05:09:03.498Z,0.00
2022-12-17T05:10:03.484Z,0.00
2022-12-17T05:11:03.478Z,0.00
2022-12-17T05:12:03.472Z,0.00
2022-12-17T05:13:03.454Z,0.00
2022-12-17T05:14:03.448Z,0.00
2022-12-17T05:15:03.434Z,0.00
2022-12-17T05:16:03.475Z,0.00
2022-12-17T05:17:03.441Z,0.00
2022-12-17T05:18:03.397Z,0.00
2022-12-17T05:19:03.390Z,0.00
2022-12-17T05:20:03.387Z,0.00
2022-12-17T05:21:03.367Z,0.00
2022-12-17T05:22:03.371Z,0.00
2022-12-17T05:23:03.350Z,0.00
2022-12-17T05:24:03.340Z,0.00
2022-12-17T05:25:03.324Z,0.00
2022-12-17T05:26:03.314Z,0.00
2022-12-17T05:27:03.339Z,0.00
2022-12-17T05:28:03.300Z,0.00
2022-12-17T05:29:03.290Z,0.00
2022-12-17T05:30:03.267Z,0.00
2022-12-17T05:31:03.298Z,0.00
2022-12-17T05:32:03.270Z,0.00
2022-12-17T05:33:03.239Z,0.00
2022-12-17T05:34:03.235Z,0.00
2022-12-17T05:35:03.223Z,0.00
2022-12-17T05:36:03.212Z,0.00
2022-12-17T05:37:03.212Z,0.00
2022-12-17T05:38:03.190Z,0.00
2022-12-17T05:39:03.179Z,0.00
2022-12-17T05:40:05.479Z,0.00
2022-12-17T05:41:03.156Z,0.00
2022-12-17T05:42:03.158Z,0.00
2022-12-17T05:43:03.136Z,0.00
2022-12-17T05:44:03.125Z,0.00
2022-12-17T05:45:03.124Z,0.00
2022-12-17T05:46:03.187Z,0.00
2022-12-17T05:47:03.103Z,0.00
2022-12-17T05:48:03.092Z,0.00
2022-12-17T05:49:03.078Z,0.00
2022-12-17T05:50:03.058Z,0.00
2022-12-17T05:51:03.046Z,0.00
2022-12-17T05:52:03.063Z,0.00
2022-12-17T05:53:03.031Z,0.00
2022-12-17T05:54:03.017Z,0.00
2022-12-17T05:55:03.006Z,0.00
2022-12-17T05:56:02.992Z,0.00
2022-12-17T05:57:03.003Z,0.00
2022-12-17T05:58:02.975Z,0.00
2022-12-17T05:59:02.963Z,0.00
2022-12-17T06:00:02.955Z,0.00
2022-12-17T06:01:02.941Z,0.00
2022-12-17T06:02:03.006Z,0.00
2022-12-17T06:03:03.101Z,0.00
2022-12-17T06:04:02.987Z,0.00
2022-12-17T06:05:02.919Z,0.00
2022-12-17T06:06:02.887Z,0.00
2022-12-17T06:07:02.890Z,0.00
2022-12-17T06:08:02.870Z,0.00
2022-12-17T06:09:02.858Z,0.00
2022-12-17T06:10:02.844Z,0.00
2022-12-17T06:11:02.828Z,0.00
2022-12-17T06:12:03.255Z,0.00
2022-12-17T06:13:02.827Z,0.00
2022-12-17T06:14:02.798Z,0.00
2022-12-17T06:15:02.797Z,0.00
2022-12-17T06:16:02.845Z,0.00
2022-12-17T06:17:02.779Z,0.00
2022-12-17T06:18:02.779Z,0.00
2022-12-17T06:19:02.743Z,0.00
2022-12-17T06:20:02.742Z,0.00
2022-12-17T06:21:02.743Z,0.00
2022-12-17T06:22:02.719Z,0.00
2022-12-17T06:23:02.722Z,0.00
2022-12-17T06:24:02.693Z,0.00
2022-12-17T06:25:02.680Z,0.00
2022-12-17T06:26:02.729Z,0.00
2022-12-17T06:27:02.662Z,0.00
2022-12-17T06:28:02.663Z,0.00
2022-12-17T06:29:02.634Z,0.00
2022-12-17T06:30:02.629Z,0.00
2022-12-17T06:31:02.655Z,0.00
2022-12-17T06:32:02.608Z,0.00
2022-12-17T06:33:02.618Z,0.00
2022-12-17T06:34:02.589Z,0.00
2022-12-17T06:35:02.577Z,0.00
2022-12-17T06:36:02.573Z,0.00
2022-12-17T06:37:02.559Z,0.00
2022-12-17T06:38:02.561Z,0.00
2022-12-17T06:39:02.533Z,0.00
2022-12-17T06:40:02.525Z,0.00
2022-12-17T06:41:02.519Z,0.00
2022-12-17T06:42:04.524Z,0.00
2022-12-17T06:43:02.516Z,0.00
2022-12-17T06:44:02.480Z,0.00
2022-12-17T06:45:02.476Z,0.00
2022-12-17T06:46:02.457Z,0.00
2022-12-17T06:47:02.554Z,0.00
2022-12-17T06:48:02.456Z,0.00
2022-12-17T06:49:02.438Z,0.00
2022-12-17T06:50:02.419Z,0.00
2022-12-17T06:51:02.410Z,0.00
2022-12-17T06:52:02.394Z,0.00
2022-12-17T06:53:02.417Z,0.00
2022-12-17T06:54:02.396Z,0.00
2022-12-17T06:55:02.367Z,4.00
2022-12-17T06:56:02.355Z,4.00
2022-12-17T06:57:02.339Z,0.00
2022-12-17T06:58:02.352Z,0.00
2022-12-17T06:59:02.317Z,4.00
2022-12-17T07:00:02.317Z,0.00
2022-12-17T07:01:02.316Z,4.00
2022-12-17T07:02:02.341Z,8.00
2022-12-17T07:03:02.359Z,4.00
2022-12-17T07:04:02.273Z,4.00
2022-12-17T07:05:02.252Z,8.00
2022-12-17T07:06:02.257Z,8.00
2022-12-17T07:07:02.241Z,8.00
2022-12-17T07:08:02.251Z,8.00
2022-12-17T07:09:02.213Z,12.00
2022-12-17T07:10:02.202Z,12.00
2022-12-17T07:11:02.199Z,16.00
2022-12-17T07:12:02.256Z,20.00
2022-12-17T07:13:02.186Z,20.00
2022-12-17T07:14:02.165Z,20.00
2022-12-17T07:15:02.148Z,24.00
2022-12-17T07:16:02.169Z,28.00
2022-12-17T07:17:02.129Z,32.00
2022-12-17T07:18:02.137Z,32.00
2022-12-17T07:19:02.107Z,40.00
2022-12-17T07:20:02.099Z,44.00
2022-12-17T07:21:02.086Z,48.00
2022-12-17T07:22:02.080Z,52.00
2022-12-17T07:23:02.084Z,56.00
2022-12-17T07:24:02.062Z,64.00
2022-12-17T07:25:02.048Z,72.00
2022-12-17T07:26:02.032Z,80.00
2022-12-17T07:27:02.031Z,88.00
2022-12-17T07:28:02.025Z,96.00
2022-12-17T07:29:02.007Z,100.00
2022-12-17T07:30:01.995Z,108.00
2022-12-17T07:31:01.985Z,120.00
2022-12-17T07:32:02.105Z,128.00
2022-12-17T07:33:01.964Z,140.00
2022-12-17T07:34:01.945Z,148.00
2022-12-17T07:35:01.932Z,160.00
2022-12-17T07:36:01.928Z,168.00
2022-12-17T07:37:01.916Z,180.00
2022-12-17T07:38:01.933Z,188.00
2022-12-17T07:39:01.896Z,204.00
2022-12-17T07:40:01.890Z,212.00
2022-12-17T07:41:01.897Z,224.00
2022-12-17T07:42:01.866Z,240.00
2022-12-17T07:43:01.875Z,252.00
2022-12-17T07:44:01.841Z,268.00
2022-12-17T07:45:01.831Z,280.00
2022-12-17T07:46:01.858Z,292.00
2022-12-17T07:47:01.807Z,308.00
2022-12-17T07:48:01.837Z,316.00
2022-12-17T07:49:01.795Z,336.00
2022-12-17T07:50:01.773Z,348.00
2022-12-17T07:51:01.767Z,360.00
2022-12-17T07:52:01.780Z,376.00
2022-12-17T07:53:01.760Z,388.00
2022-12-17T07:54:01.739Z,404.00
2022-12-17T07:55:01.729Z,420.00
2022-12-17T07:56:01.714Z,436.00
2022-12-17T07:57:01.704Z,448.00
2022-12-17T07:58:01.713Z,460.00
2022-12-17T07:59:01.681Z,476.00
2022-12-17T08:00:01.663Z,488.00
2022-12-17T08:01:01.723Z,500.00
2022-12-17T08:02:02.037Z,516.00
2022-12-17T08:03:02.250Z,532.00
2022-12-17T08:04:01.630Z,548.00
2022-12-17T08:05:01.616Z,560.00
2022-12-17T08:06:01.599Z,572.00
2022-12-17T08:07:06.948Z,588.00
2022-12-17T08:08:01.629Z,596.00
2022-12-17T08:09:01.575Z,612.00
2022-12-17T08:10:01.558Z,628.00
2022-12-17T08:11:01.560Z,640.00
2022-12-17T08:12:01.538Z,652.00
2022-12-17T08:13:01.549Z,664.00
2022-12-17T08:14:01.527Z,676.00
2022-12-17T08:15:01.504Z,688.00
2022-12-17T08:16:01.500Z,696.00
2022-12-17T08:17:01.596Z,712.00
2022-12-17T08:18:01.489Z,724.00
2022-12-17T08:19:01.502Z,740.00
2022-12-17T08:20:01.458Z,748.00
2022-12-17T08:21:01.471Z,760.00
2022-12-17T08:22:01.436Z,768.00
2022-12-17T08:23:01.495Z,780.00
2022-12-17T08:24:01.512Z,792.00
2022-12-17T08:25:01.411Z,796.00
2022-12-17T08:26:01.394Z,812.00
2022-12-17T08:27:02.050Z,824.00
2022-12-17T08:28:04.587Z,832.00
2022-12-17T08:29:01.423Z,848.00
2022-12-17T08:30:01.356Z,860.00
2022-12-17T08:31:01.435Z,868.00
2022-12-17T08:32:01.345Z,876.00
2022-12-17T08:33:01.471Z,888.00
2022-12-17T08:34:07.573Z,896.00
2022-12-17T08:35:01.310Z,908.00
2022-12-17T08:36:01.291Z,916.00
2022-12-17T08:37:01.314Z,924.00
2022-12-17T08:38:01.280Z,936.00
2022-12-17T08:39:01.389Z,944.00
2022-12-17T08:40:01.246Z,956.00
2022-12-17T08:41:01.229Z,968.00
2022-12-17T08:42:04.505Z,976.00
2022-12-17T08:43:01.225Z,984.00
2022-12-17T08:44:01.218Z,992.00
2022-12-17T08:45:01.180Z,1000.00
2022-12-17T08:46:01.258Z,1008.00
2022-12-17T08:47:01.164Z,1020.00
2022-12-17T08:48:04.144Z,1032.00
2022-12-17T08:49:01.153Z,1040.00
2022-12-17T08:50:01.137Z,1044.00
2022-12-17T08:51:01.132Z,1052.00
2022-12-17T08:52:01.112Z,1064.00
2022-12-17T08:53:01.127Z,1068.00
2022-12-17T08:54:01.090Z,1080.00
2022-12-17T08:55:01.084Z,1088.00
2022-12-17T08:56:01.074Z,1096.00
2022-12-17T08:57:01.064Z,1108.00
2022-12-17T08:58:01.081Z,1120.00
2022-12-17T08:59:01.576Z,1128.00
2022-12-17T09:00:01.028Z,1136.00
2022-12-17T09:01:01.087Z,1144.00
2022-12-17T09:02:01.221Z,1148.00
2022-12-17T09:03:01.107Z,1156.00
2022-12-17T09:04:00.987Z,1168.00
2022-12-17T09:05:00.981Z,1176.00
2022-12-17T09:06:00.967Z,1184.00
2022-12-17T09:07:00.958Z,1200.00
2022-12-17T09:08:00.969Z,1204.00
2022-12-17T09:09:00.951Z,1208.00
2022-12-17T09:10:00.920Z,1216.00
2022-12-17T09:11:00.914Z,1228.00
2022-12-17T09:12:00.902Z,1232.00
2022-12-17T09:13:04.716Z,1236.00
2022-12-17T09:14:00.878Z,1244.00
2022-12-17T09:15:00.862Z,1248.00
2022-12-17T09:16:00.857Z,1260.00
2022-12-17T09:17:00.965Z,1260.00
2022-12-17T09:18:00.852Z,1264.00
2022-12-17T09:19:00.838Z,1276.00
2022-12-17T09:20:00.818Z,1288.00
2022-12-17T09:21:00.809Z,1288.00
2022-12-17T09:22:00.798Z,1292.00
2022-12-17T09:23:00.794Z,1296.00
2022-12-17T09:24:00.776Z,1300.00
2022-12-17T09:25:00.757Z,1308.00
2022-12-17T09:26:00.756Z,1312.00
2022-12-17T09:27:00.734Z,1312.00
2022-12-17T09:28:00.748Z,1316.00
2022-12-17T09:29:00.714Z,1316.00
2022-12-17T09:30:00.719Z,1320.00
2022-12-17T09:31:00.791Z,1324.00
2022-12-17T09:32:00.693Z,1324.00
2022-12-17T09:33:00.694Z,1324.00
2022-12-17T09:34:00.665Z,1332.00
2022-12-17T09:35:00.682Z,1336.00
2022-12-17T09:36:00.647Z,1344.00
2022-12-17T09:37:00.636Z,1348.00
2022-12-17T09:38:00.636Z,1360.00
2022-12-17T09:39:00.613Z,1368.00
2022-12-17T09:40:00.596Z,1372.00
2022-12-17T09:41:00.590Z,1380.00
2022-12-17T09:42:00.607Z,1384.00
2022-12-17T09:43:00.585Z,1388.00
2022-12-17T09:44:00.553Z,1392.00
2022-12-17T09:45:00.543Z,1396.00
2022-12-17T09:46:00.580Z,1404.00
2022-12-17T09:47:00.531Z,1400.00
2022-12-17T09:48:00.525Z,1412.00
2022-12-17T09:49:00.501Z,1416.00
2022-12-17T09:50:00.494Z,1420.00
2022-12-17T09:51:00.488Z,1424.00
2022-12-17T09:52:00.472Z,1420.00
2022-12-17T09:53:00.472Z,1424.00
2022-12-17T09:54:00.482Z,1420.00
2022-12-17T09:55:01.720Z,1420.00
2022-12-17T09:56:00.423Z,1436.00
2022-12-17T09:57:00.420Z,1444.00
2022-12-17T09:58:00.417Z,1452.00
2022-12-17T09:59:00.389Z,1448.00
2022-12-17T10:00:00.387Z,1472.00
2022-12-17T10:01:01.159Z,1480.00
2022-12-17T10:02:00.521Z,1476.00
2022-12-17T10:03:00.625Z,1464.00
2022-12-17T10:04:00.427Z,1468.00
2022-12-17T10:05:00.339Z,1468.00
2022-12-17T10:06:00.311Z,1456.00
2022-12-17T10:07:00.307Z,1456.00
2022-12-17T10:08:00.312Z,1464.00
2022-12-17T10:09:00.293Z,1472.00
2022-12-17T10:10:00.283Z,1480.00
2022-12-17T10:11:00.269Z,1488.00
2022-12-17T10:12:00.265Z,1480.00
2022-12-17T10:13:08.094Z,1480.00
2022-12-17T10:14:00.229Z,1480.00
2022-12-17T10:15:00.223Z,1480.00
2022-12-17T10:16:00.305Z,1480.00
2022-12-17T10:17:00.204Z,1468.00
2022-12-17T10:18:00.198Z,1472.00
2022-12-17T10:19:00.193Z,1472.00
2022-12-17T10:20:00.199Z,1472.00
2022-12-17T10:21:00.159Z,1468.00
2022-12-17T10:22:00.155Z,1464.00
2022-12-17T10:23:00.138Z,1468.00
2022-12-17T10:24:00.142Z,1468.00
2022-12-17T10:25:00.153Z,1476.00
2022-12-17T10:26:00.106Z,1484.00
2022-12-17T10:27:00.097Z,1480.00
2022-12-17T10:28:00.089Z,1480.00
2022-12-17T10:29:00.102Z,1492.00
2022-12-17T10:30:00.067Z,1492.00
2022-12-17T10:31:00.110Z,1496.00
2022-12-17T10:32:00.038Z,1488.00
2022-12-17T10:33:00.035Z,1496.00
2022-12-17T10:34:00.039Z,1500.00
2022-12-17T10:35:05.336Z,1504.00
2022-12-17T10:36:00.003Z,1508.00
2022-12-17T10:36:59.985Z,1500.00
2022-12-17T10:37:59.976Z,1504.00
2022-12-17T10:39:00.035Z,1496.00
2022-12-17T10:39:59.959Z,1508.00
2022-12-17T10:40:59.945Z,1500.00
2022-12-17T10:41:59.932Z,1504.00
2022-12-17T10:42:59.935Z,1516.00
2022-12-17T10:43:59.924Z,1512.00
2022-12-17T10:44:59.908Z,1496.00
2022-12-17T10:45:59.940Z,1496.00
2022-12-17T10:46:59.898Z,1508.00
2022-12-17T10:47:59.869Z,1512.00
2022-12-17T10:48:59.874Z,1516.00
2022-12-17T10:49:59.858Z,1532.00
2022-12-17T10:50:59.840Z,1520.00
2022-12-17T10:51:59.866Z,1516.00
2022-12-17T10:52:59.835Z,1516.00
2022-12-17T10:53:59.836Z,1516.00
2022-12-17T10:54:59.790Z,1528.00
2022-12-17T10:55:59.785Z,1524.00
2022-12-17T10:56:59.782Z,1520.00
2022-12-17T10:57:59.772Z,1516.00
2022-12-17T10:58:59.761Z,1516.00
2022-12-17T10:59:59.753Z,1524.00
2022-12-17T11:00:59.737Z,1524.00
2022-12-17T11:01:59.829Z,1524.00
2022-12-17T11:02:59.926Z,1528.00
2022-12-17T11:03:59.764Z,1536.00
2022-12-17T11:04:59.691Z,1528.00
2022-12-17T11:06:00.072Z,1528.00
2022-12-17T11:06:59.664Z,1528.00
2022-12-17T11:07:59.693Z,1524.00
2022-12-17T11:08:59.667Z,1524.00
2022-12-17T11:10:03.720Z,1528.00
2022-12-17T11:10:59.631Z,1528.00
2022-12-17T11:12:02.899Z,1532.00
2022-12-17T11:12:59.606Z,1540.00
2022-12-17T11:13:59.599Z,1540.00
2022-12-17T11:14:59.597Z,1536.00
2022-12-17T11:15:59.653Z,1540.00
2022-12-17T11:16:59.554Z,1540.00
2022-12-17T11:17:59.565Z,1544.00
2022-12-17T11:18:59.558Z,1544.00
2022-12-17T11:19:59.522Z,1544.00
2022-12-17T11:20:59.525Z,1544.00
2022-12-17T11:21:59.515Z,1540.00
2022-12-17T11:22:59.503Z,1536.00
2022-12-17T11:23:59.506Z,1532.00
2022-12-17T11:24:59.491Z,1528.00
2022-12-17T11:25:59.484Z,1532.00
2022-12-17T11:26:59.447Z,1536.00
2022-12-17T11:27:59.465Z,1536.00
2022-12-17T11:28:59.529Z,1548.00
2022-12-17T11:29:59.439Z,1552.00
2022-12-17T11:30:59.478Z,1552.00
2022-12-17T11:31:59.391Z,1552.00
2022-12-17T11:32:59.477Z,1548.00
2022-12-17T11:33:59.390Z,1552.00
2022-12-17T11:34:59.482Z,1548.00
2022-12-17T11:35:59.360Z,1548.00
2022-12-17T11:36:59.382Z,1548.00
2022-12-17T11:37:59.326Z,1548.00
2022-12-17T11:38:59.350Z,1552.00
2022-12-17T11:39:59.332Z,1560.00
2022-12-17T11:40:59.299Z,1560.00
2022-12-17T11:41:59.295Z,1572.00
2022-12-17T11:42:59.294Z,1576.00
2022-12-17T11:43:59.283Z,1580.00
2022-12-17T11:44:59.252Z,1588.00
2022-12-17T11:45:59.290Z,1580.00
2022-12-17T11:46:59.284Z,1580.00
2022-12-17T11:47:59.774Z,1568.00
2022-12-17T11:48:59.257Z,1556.00
2022-12-17T11:49:59.199Z,1560.00
2022-12-17T11:50:59.189Z,1552.00
2022-12-17T11:51:59.196Z,1548.00
2022-12-17T11:52:59.165Z,1552.00
2022-12-17T11:53:59.171Z,1552.00
2022-12-17T11:54:59.147Z,1560.00
2022-12-17T11:55:59.131Z,1556.00
2022-12-17T11:56:59.128Z,1556.00
2022-12-17T11:57:59.140Z,1548.00
2022-12-17T11:58:59.122Z,1552.00
2022-12-17T12:00:03.750Z,1560.00
2022-12-17T12:00:59.091Z,1560.00
2022-12-17T12:01:59.143Z,1560.00
2022-12-17T12:02:59.192Z,1568.00
2022-12-17T12:03:59.139Z,1572.00
2022-12-17T12:04:59.067Z,1572.00
2022-12-17T12:05:59.041Z,1572.00
2022-12-17T12:06:59.046Z,1576.00
2022-12-17T12:07:59.014Z,1576.00
2022-12-17T12:08:59.097Z,1568.00
2022-12-17T12:09:58.999Z,1564.00
2022-12-17T12:10:58.987Z,1576.00
2022-12-17T12:11:58.995Z,1568.00
2022-12-17T12:12:58.969Z,1564.00
2022-12-17T12:13:58.961Z,1564.00
2022-12-17T12:14:58.961Z,1552.00
2022-12-17T12:15:59.045Z,1564.00
2022-12-17T12:16:58.918Z,1556.00
2022-12-17T12:17:58.900Z,1556.00
2022-12-17T12:18:59.014Z,1552.00
2022-12-17T12:19:58.875Z,1556.00
2022-12-17T12:20:58.877Z,1556.00
2022-12-17T12:21:58.858Z,1548.00
2022-12-17T12:22:58.885Z,1552.00
2022-12-17T12:23:58.852Z,1548.00
2022-12-17T12:24:58.832Z,1540.00
2022-12-17T12:25:58.830Z,1540.00
2022-12-17T12:26:58.831Z,1544.00
2022-12-17T12:27:58.801Z,1548.00
2022-12-17T12:28:58.816Z,1544.00
2022-12-17T12:29:58.771Z,1552.00
2022-12-17T12:30:58.764Z,1552.00
2022-12-17T12:31:58.835Z,1556.00
2022-12-17T12:32:58.745Z,1560.00
2022-12-17T12:33:58.739Z,1548.00
2022-12-17T12:34:58.781Z,1552.00
2022-12-17T12:35:58.709Z,1552.00
2022-12-17T12:36:58.694Z,1540.00
2022-12-17T12:37:58.707Z,1540.00
2022-12-17T12:38:58.836Z,1532.00
2022-12-17T12:39:58.666Z,1528.00
2022-12-17T12:40:58.649Z,1532.00
2022-12-17T12:41:58.651Z,1536.00
2022-12-17T12:42:58.617Z,1536.00
2022-12-17T12:43:58.639Z,1532.00
2022-12-17T12:44:58.645Z,1528.00
2022-12-17T12:45:58.646Z,1508.00
2022-12-17T12:46:58.598Z,1516.00
2022-12-17T12:47:58.596Z,1508.00